createdAt,value
2022-11-29T00:01:07.719Z,51.09
2022-11-29T00:03:34.074Z,51.31
2022-11-29T00:06:00.450Z,50.72
2022-11-29T00:08:26.985Z,50.77
2022-11-29T00:10:53.870Z,51.28
2022-11-29T00:13:20.550Z,50.67
2022-11-29T00:15:47.379Z,50.65
2022-11-29T00:18:13.855Z,50.43
2022-11-29T00:20:40.168Z,50.10
2022-11-29T00:23:06.700Z,51.37
2022-11-29T00:25:36.898Z,51.08
2022-11-29T00:28:03.208Z,50.66
2022-11-29T00:30:29.675Z,50.97
2022-11-29T00:32:56.504Z,50.33
2022-11-29T00:35:23.939Z,50.41
2022-11-29T00:37:50.506Z,50.47
2022-11-29T00:40:17.850Z,51.16
2022-11-29T00:42:44.289Z,51.48
2022-11-29T00:45:10.904Z,50.86
2022-11-29T00:47:37.257Z,50.27
2022-11-29T00:50:03.712Z,50.06
2022-11-29T00:52:30.142Z,50.43
2022-11-29T00:54:56.540Z,50.65
2022-11-29T00:57:25.238Z,50.37
2022-11-29T00:59:51.693Z,50.34
2022-11-29T01:02:18.086Z,50.37
2022-11-29T01:04:44.907Z,51.24
2022-11-29T01:07:12.133Z,51.29
2022-11-29T01:09:38.554Z,51.44
2022-11-29T01:12:04.932Z,50.27
2022-11-29T01:14:31.603Z,50.20
2022-11-29T01:16:58.164Z,49.95
2022-11-29T01:19:24.575Z,50.42
2022-11-29T01:21:50.984Z,50.62
2022-11-29T01:24:17.455Z,50.58
2022-11-29T01:26:43.850Z,50.04
2022-11-29T01:29:10.325Z,50.97
2022-11-29T01:31:37.024Z,51.19
2022-11-29T01:34:03.392Z,51.35
2022-11-29T01:36:30.013Z,50.89
2022-11-29T01:38:56.387Z,50.66
2022-11-29T01:41:22.969Z,50.39
2022-11-29T01:43:51.812Z,50.24
2022-11-29T01:46:18.349Z,49.92
2022-11-29T01:48:44.721Z,49.97
2022-11-29T01:51:11.115Z,50.42
2022-11-29T01:53:37.494Z,51.31
2022-11-29T01:56:03.873Z,50.69
2022-11-29T01:58:30.555Z,50.60
2022-11-29T02:00:58.596Z,50.03
2022-11-29T02:03:25.055Z,50.34
2022-11-29T02:05:51.657Z,50.67
2022-11-29T02:08:18.079Z,50.44
2022-11-29T02:10:44.562Z,49.70
2022-11-29T02:13:11.063Z,49.71
2022-11-29T02:15:37.663Z,49.82
2022-11-29T02:18:04.306Z,49.91
2022-11-29T02:20:33.110Z,49.81
2022-11-29T02:23:00.189Z,49.74
2022-11-29T02:25:26.641Z,49.79
2022-11-29T02:27:53.444Z,49.92
2022-11-29T02:30:20.255Z,50.73
2022-11-29T02:32:46.759Z,50.17
2022-11-29T02:35:13.270Z,49.53
2022-11-29T02:37:40.856Z,50.05
2022-11-29T02:40:07.367Z,50.36
2022-11-29T02:42:33.950Z,51.63
2022-11-29T02:45:00.398Z,51.27
2022-11-29T02:47:26.779Z,50.77
2022-11-29T02:49:53.437Z,50.71
2022-11-29T02:52:19.802Z,50.60
2022-11-29T02:54:46.621Z,49.72
2022-11-29T02:57:13.637Z,50.13
2022-11-29T02:59:40.006Z,50.43
2022-11-29T03:02:06.648Z,50.46
2022-11-29T03:04:33.365Z,50.06
2022-11-29T03:06:59.744Z,50.16
2022-11-29T03:09:26.367Z,49.56
2022-11-29T03:11:52.719Z,50.12
2022-11-29T03:14:19.043Z,49.95
2022-11-29T03:16:46.422Z,49.79
2022-11-29T03:19:13.068Z,49.51
2022-11-29T03:21:39.410Z,50.63
2022-11-29T03:24:05.867Z,50.56
2022-11-29T03:26:32.237Z,49.96
2022-11-29T03:29:00.436Z,50.19
2022-11-29T03:31:26.795Z,50.16
2022-11-29T03:33:53.478Z,49.37
2022-11-29T03:36:19.861Z,49.48
2022-11-29T03:38:46.261Z,49.91
2022-11-29T03:41:12.899Z,49.46
2022-11-29T03:43:39.648Z,49.26
2022-11-29T03:46:06.307Z,49.25
2022-11-29T03:48:32.684Z,48.76
2022-11-29T03:50:59.228Z,49.45
2022-11-29T03:53:25.603Z,49.03
2022-11-29T03:55:52.558Z,49.39
2022-11-29T03:58:18.905Z,49.26
2022-11-29T04:00:45.464Z,49.59
2022-11-29T04:03:12.305Z,49.46
2022-11-29T04:05:38.857Z,49.73
2022-11-29T04:08:05.225Z,49.05
2022-11-29T04:10:31.902Z,49.66
2022-11-29T04:12:58.606Z,49.39
2022-11-29T04:15:24.947Z,50.48
2022-11-29T04:17:51.725Z,50.19
2022-11-29T04:20:18.113Z,50.14
2022-11-29T04:22:44.526Z,49.99
2022-11-29T04:25:11.115Z,49.85
2022-11-29T04:27:37.537Z,49.96
2022-11-29T04:30:03.899Z,49.46
2022-11-29T04:32:30.677Z,49.93
2022-11-29T04:34:57.122Z,49.87
2022-11-29T04:37:23.858Z,49.63
2022-11-29T04:39:50.516Z,49.68
2022-11-29T04:42:17.112Z,49.44
2022-11-29T04:44:44.000Z,49.35
2022-11-29T04:47:10.664Z,49.87
2022-11-29T04:49:37.064Z,49.83
2022-11-29T04:52:03.400Z,49.87
2022-11-29T04:54:29.939Z,49.77
2022-11-29T04:56:56.267Z,50.01
2022-11-29T04:59:23.159Z,49.88
2022-11-29T05:01:50.492Z,49.84
2022-11-29T05:04:16.912Z,50.31
2022-11-29T05:06:43.417Z,50.48
2022-11-29T05:09:09.825Z,50.24
2022-11-29T05:11:36.353Z,50.95
2022-11-29T05:14:02.718Z,50.99
2022-11-29T05:16:29.139Z,50.35
2022-11-29T05:18:55.895Z,51.03
2022-11-29T05:21:22.273Z,50.71
2022-11-29T05:23:48.749Z,50.47
2022-11-29T05:26:15.136Z,51.09
2022-11-29T05:28:41.542Z,51.44
2022-11-29T05:31:08.195Z,51.54
2022-11-29T05:33:34.682Z,51.16
2022-11-29T05:36:01.268Z,50.29
2022-11-29T05:38:27.734Z,51.52
2022-11-29T05:40:54.288Z,51.97
2022-11-29T05:43:20.632Z,51.34
2022-11-29T05:45:46.993Z,50.94
2022-11-29T05:48:13.426Z,50.84
2022-11-29T05:50:39.855Z,51.32
2022-11-29T05:53:06.400Z,50.53
2022-11-29T05:55:32.790Z,51.42
2022-11-29T05:57:59.154Z,51.07
2022-11-29T06:00:25.624Z,51.92
2022-11-29T06:02:52.124Z,52.65
2022-11-29T06:05:18.552Z,52.04
2022-11-29T06:07:45.051Z,52.21
2022-11-29T06:10:11.638Z,52.62
2022-11-29T06:12:38.463Z,52.58
2022-11-29T06:15:05.753Z,52.21
2022-11-29T06:17:38.655Z,52.32
2022-11-29T06:20:05.829Z,52.28
2022-11-29T06:22:32.565Z,52.67
2022-11-29T06:24:59.187Z,52.60
2022-11-29T06:27:25.735Z,52.54
2022-11-29T06:29:52.180Z,52.44
2022-11-29T06:32:18.739Z,52.94
2022-11-29T06:34:45.283Z,52.62
2022-11-29T06:37:12.311Z,52.82
2022-11-29T06:39:38.909Z,53.20
2022-11-29T06:42:05.400Z,52.84
2022-11-29T06:44:31.797Z,52.59
2022-11-29T06:46:58.240Z,52.41
2022-11-29T06:49:24.693Z,52.67
2022-11-29T06:51:51.118Z,53.05
2022-11-29T06:54:17.467Z,52.58
2022-11-29T06:56:43.945Z,51.79
2022-11-29T06:59:10.578Z,52.36
2022-11-29T07:01:37.337Z,52.65
2022-11-29T07:04:03.948Z,52.56
2022-11-29T07:06:30.311Z,53.07
2022-11-29T07:08:56.670Z,53.08
2022-11-29T07:11:23.444Z,53.14
2022-11-29T07:13:49.985Z,53.17
2022-11-29T07:16:16.535Z,52.43
2022-11-29T07:18:43.074Z,52.76
2022-11-29T07:21:09.448Z,52.29
2022-11-29T07:23:36.065Z,52.44
2022-11-29T07:26:05.490Z,52.38
2022-11-29T07:28:31.847Z,52.57
2022-11-29T07:30:58.785Z,52.58
2022-11-29T07:33:25.221Z,53.41
2022-11-29T07:35:51.591Z,53.92
2022-11-29T07:38:17.979Z,53.66
2022-11-29T07:40:44.449Z,52.94
2022-11-29T07:43:11.210Z,52.46
2022-11-29T07:45:37.563Z,52.72
2022-11-29T07:48:03.965Z,52.62
2022-11-29T07:50:30.515Z,52.93
2022-11-29T07:52:57.184Z,52.62
2022-11-29T07:55:23.693Z,52.95
2022-11-29T07:57:50.067Z,52.79
2022-11-29T08:00:16.437Z,52.26
2022-11-29T08:02:42.943Z,52.67
2022-11-29T08:05:09.702Z,52.91
2022-11-29T08:07:36.649Z,52.47
2022-11-29T08:10:03.152Z,52.30
2022-11-29T08:12:29.503Z,52.48
2022-11-29T08:14:56.057Z,52.46
2022-11-29T08:17:22.554Z,52.42
2022-11-29T08:19:48.993Z,52.69
2022-11-29T08:22:15.456Z,52.35
2022-11-29T08:24:42.068Z,52.65
2022-11-29T08:27:08.440Z,51.81
2022-11-29T08:29:34.792Z,51.83
2022-11-29T08:32:01.269Z,51.73
2022-11-29T08:34:27.718Z,52.12
2022-11-29T08:36:54.111Z,51.25
2022-11-29T08:39:20.556Z,50.93
2022-11-29T08:41:46.937Z,50.76
2022-11-29T08:44:13.320Z,51.39
2022-11-29T08:46:39.719Z,51.57
2022-11-29T08:49:06.106Z,51.53
2022-11-29T08:51:32.514Z,52.35
2022-11-29T08:53:58.893Z,52.07
2022-11-29T08:57:31.040Z,51.64
2022-11-29T08:59:11.693Z,51.36
2022-11-29T09:01:38.163Z,51.57
2022-11-29T09:04:04.584Z,51.42
2022-11-29T09:06:31.215Z,51.53
2022-11-29T09:08:57.613Z,51.67
2022-11-29T09:11:24.131Z,51.32
2022-11-29T09:13:50.584Z,51.44
2022-11-29T09:16:17.321Z,50.89
2022-11-29T09:18:48.516Z,52.08
2022-11-29T09:21:17.753Z,52.29
2022-11-29T09:23:44.141Z,52.13
2022-11-29T09:26:10.534Z,51.14
2022-11-29T09:28:37.069Z,50.66
2022-11-29T09:31:03.470Z,50.59
2022-11-29T09:33:30.272Z,51.03
2022-11-29T09:35:56.889Z,50.11
2022-11-29T09:38:24.307Z,51.18
2022-11-29T09:40:50.736Z,50.91
2022-11-29T09:43:17.223Z,51.08
2022-11-29T09:45:43.708Z,51.31
2022-11-29T09:48:10.104Z,50.81
2022-11-29T09:50:36.505Z,51.03
2022-11-29T09:53:02.972Z,52.12
2022-11-29T09:55:29.446Z,51.47
2022-11-29T09:57:55.853Z,50.80
2022-11-29T10:00:22.333Z,51.01
2022-11-29T10:02:49.001Z,50.43
2022-11-29T10:05:15.836Z,50.70
2022-11-29T10:07:42.396Z,51.61
2022-11-29T10:10:08.806Z,51.04
2022-11-29T10:12:35.574Z,50.93
2022-11-29T10:15:01.927Z,49.90
2022-11-29T10:17:28.402Z,50.26
2022-11-29T10:19:55.468Z,50.39
2022-11-29T10:22:21.874Z,50.66
2022-11-29T10:24:48.428Z,50.01
2022-11-29T10:27:15.483Z,50.18
2022-11-29T10:29:41.978Z,49.16
2022-11-29T10:32:10.340Z,48.92
2022-11-29T10:34:36.885Z,49.25
2022-11-29T10:37:03.294Z,48.27
2022-11-29T10:39:29.747Z,50.25
2022-11-29T10:41:56.176Z,49.55
2022-11-29T10:44:22.563Z,49.69
2022-11-29T10:46:49.251Z,50.49
2022-11-29T10:49:15.935Z,49.75
2022-11-29T10:51:42.424Z,49.14
2022-11-29T10:54:08.986Z,49.46
2022-11-29T10:56:35.496Z,49.33
2022-11-29T10:59:01.855Z,49.13
2022-11-29T11:01:28.232Z,49.21
2022-11-29T11:03:54.777Z,48.84
2022-11-29T11:06:21.215Z,49.29
2022-11-29T11:08:47.983Z,49.80
2022-11-29T11:11:14.588Z,50.00
2022-11-29T11:13:41.089Z,49.05
2022-11-29T11:16:07.648Z,48.93
2022-11-29T11:18:34.056Z,49.35
2022-11-29T11:21:00.758Z,49.16
2022-11-29T11:23:27.315Z,49.48
2022-11-29T11:25:53.846Z,49.06
2022-11-29T11:28:20.201Z,48.64
2022-11-29T11:30:46.611Z,48.90
2022-11-29T11:33:13.086Z,49.15
2022-11-29T11:35:39.490Z,49.30
2022-11-29T11:38:05.873Z,49.07
2022-11-29T11:40:32.365Z,49.08
2022-11-29T11:42:58.782Z,48.83
2022-11-29T11:45:26.565Z,48.95
2022-11-29T11:47:53.027Z,49.29
2022-11-29T11:50:19.401Z,49.98
2022-11-29T11:52:50.425Z,49.28
2022-11-29T11:55:17.306Z,49.05
2022-11-29T11:57:43.803Z,49.01
2022-11-29T12:00:10.171Z,49.38
2022-11-29T12:02:36.909Z,48.98
2022-11-29T12:05:03.567Z,49.00
2022-11-29T12:07:59.661Z,49.00
2022-11-29T12:10:16.652Z,49.43
2022-11-29T12:12:43.083Z,49.68
2022-11-29T12:15:09.503Z,49.03
2022-11-29T12:17:35.928Z,48.61
2022-11-29T12:20:02.534Z,49.35
2022-11-29T12:22:28.965Z,48.62
2022-11-29T12:24:55.555Z,48.84
2022-11-29T12:27:22.511Z,48.45
2022-11-29T12:29:49.241Z,52.82
2022-11-29T12:32:16.087Z,52.79
2022-11-29T12:34:43.314Z,52.67
2022-11-29T12:37:10.171Z,48.24
2022-11-29T12:39:36.578Z,48.23
2022-11-29T12:42:03.392Z,47.23
2022-11-29T12:44:29.718Z,47.52
2022-11-29T12:47:13.261Z,47.12
2022-11-29T12:49:42.610Z,47.11
2022-11-29T12:52:09.292Z,47.17
2022-11-29T12:54:35.749Z,47.15
2022-11-29T12:57:02.120Z,46.09
2022-11-29T12:59:28.454Z,46.29
2022-11-29T13:01:55.382Z,47.73
2022-11-29T13:04:22.876Z,47.17
2022-11-29T13:06:49.303Z,46.83
2022-11-29T13:09:15.867Z,46.76
2022-11-29T13:11:42.615Z,46.39
2022-11-29T13:14:40.903Z,45.77
2022-11-29T13:16:55.570Z,46.47
2022-11-29T13:19:21.926Z,46.45
2022-11-29T13:21:48.323Z,46.21
2022-11-29T13:24:15.805Z,46.11
2022-11-29T13:26:42.415Z,45.92
2022-11-29T13:29:08.802Z,46.56
2022-11-29T13:31:35.524Z,47.08
2022-11-29T13:34:02.018Z,47.07
2022-11-29T13:36:28.622Z,46.81
2022-11-29T13:38:55.003Z,47.37
2022-11-29T13:41:21.394Z,47.26
2022-11-29T13:43:47.741Z,47.39
2022-11-29T13:46:15.212Z,46.92
2022-11-29T13:48:41.885Z,47.51
2022-11-29T13:51:08.577Z,47.40
2022-11-29T13:53:34.914Z,47.94
2022-11-29T13:56:01.457Z,47.11
2022-11-29T13:58:28.150Z,46.77
2022-11-29T14:00:54.551Z,47.02
2022-11-29T14:03:21.038Z,46.87
2022-11-29T14:05:47.464Z,46.92
2022-11-29T14:08:17.805Z,47.26
2022-11-29T14:10:44.497Z,47.61
2022-11-29T14:13:10.840Z,47.97
2022-11-29T14:15:37.361Z,47.50
2022-11-29T14:18:03.837Z,47.18
2022-11-29T14:20:30.196Z,47.22
2022-11-29T14:22:56.572Z,47.15
2022-11-29T14:25:49.866Z,47.55
2022-11-29T14:28:09.338Z,47.92
2022-11-29T14:30:35.788Z,48.03
2022-11-29T14:33:02.165Z,48.65
2022-11-29T14:35:29.050Z,49.08
2022-11-29T14:37:56.209Z,49.57
2022-11-29T14:40:22.895Z,49.87
2022-11-29T14:42:49.497Z,49.45
2022-11-29T14:45:15.977Z,49.43
2022-11-29T14:47:42.358Z,49.21
2022-11-29T14:50:09.001Z,49.76
2022-11-29T14:52:36.003Z,49.39
2022-11-29T14:55:02.631Z,49.70
2022-11-29T14:57:29.278Z,49.86
2022-11-29T14:59:55.784Z,49.92
2022-11-29T15:02:22.612Z,50.08
2022-11-29T15:04:49.048Z,50.24
2022-11-29T15:07:15.716Z,50.13
2022-11-29T15:09:42.239Z,49.83
2022-11-29T15:12:08.606Z,49.65
2022-11-29T15:14:35.057Z,50.49
2022-11-29T15:17:01.573Z,50.42
2022-11-29T15:19:28.151Z,50.29
2022-11-29T15:21:54.759Z,49.77
2022-11-29T15:24:26.730Z,50.30
2022-11-29T15:26:54.998Z,52.06
2022-11-29T15:29:21.704Z,51.20
2022-11-29T15:31:48.565Z,50.54
2022-11-29T15:34:17.337Z,50.20
2022-11-29T15:36:44.066Z,49.73
2022-11-29T15:39:11.103Z,49.64
2022-11-29T15:41:37.488Z,50.08
2022-11-29T15:44:04.865Z,50.73
2022-11-29T15:46:31.324Z,49.88
2022-11-29T15:48:58.144Z,50.54
2022-11-29T15:51:24.589Z,50.56
2022-11-29T15:53:56.839Z,51.18
2022-11-29T15:56:31.608Z,50.89
2022-11-29T15:58:57.989Z,51.14
2022-11-29T16:01:24.513Z,50.58
2022-11-29T16:03:51.100Z,51.57
2022-11-29T16:06:17.481Z,49.71
2022-11-29T16:08:43.855Z,50.35
2022-11-29T16:11:12.605Z,51.44
2022-11-29T16:13:38.978Z,51.06
2022-11-29T16:16:05.411Z,51.33
2022-11-29T16:18:32.050Z,51.29
2022-11-29T16:20:58.489Z,52.50
2022-11-29T16:23:25.209Z,51.74
2022-11-29T16:25:52.081Z,50.64
2022-11-29T16:28:19.003Z,51.00
2022-11-29T16:30:45.471Z,50.65
2022-11-29T16:33:12.457Z,51.10
2022-11-29T16:35:39.305Z,50.59
2022-11-29T16:38:06.511Z,50.81
2022-11-29T16:40:33.921Z,51.00
2022-11-29T16:43:00.624Z,50.78
2022-11-29T16:45:28.033Z,50.55
2022-11-29T16:47:54.958Z,51.07
2022-11-29T16:50:24.375Z,51.12
2022-11-29T16:52:56.374Z,51.24
2022-11-29T16:55:23.170Z,50.98
2022-11-29T16:57:49.542Z,50.81
2022-11-29T17:00:16.355Z,51.19
2022-11-29T17:02:47.587Z,50.65
2022-11-29T17:05:14.045Z,51.02
2022-11-29T17:07:40.831Z,51.30
2022-11-29T17:10:07.468Z,51.63
2022-11-29T17:12:34.245Z,51.09
2022-11-29T17:15:02.355Z,51.42
2022-11-29T17:17:28.896Z,51.19
2022-11-29T17:19:55.393Z,51.68
2022-11-29T17:22:21.975Z,57.71
2022-11-29T17:24:48.774Z,56.68
2022-11-29T17:27:15.671Z,52.18
2022-11-29T17:29:42.245Z,52.14
2022-11-29T17:32:09.469Z,54.48
2022-11-29T17:34:36.986Z,52.99
2022-11-29T17:37:03.794Z,51.72
2022-11-29T17:39:30.241Z,51.38
2022-11-29T17:41:57.411Z,51.59
2022-11-29T17:44:23.878Z,51.21
2022-11-29T17:46:51.723Z,51.63
2022-11-29T17:49:20.813Z,51.95
2022-11-29T17:51:52.226Z,51.51
2022-11-29T17:54:22.767Z,51.27
2022-11-29T17:56:49.760Z,51.93
2022-11-29T17:59:20.912Z,51.94
2022-11-29T18:01:48.748Z,51.66
2022-11-29T18:04:18.250Z,51.52
2022-11-29T18:06:44.672Z,51.88
2022-11-29T18:09:11.635Z,52.22
2022-11-29T18:11:46.918Z,51.81
2022-11-29T18:14:15.337Z,51.77
2022-11-29T18:16:48.046Z,52.22
2022-11-29T18:19:15.001Z,51.70
2022-11-29T18:21:41.730Z,51.42
2022-11-29T18:24:08.621Z,51.63
2022-11-29T18:26:35.563Z,51.79
2022-11-29T18:29:02.406Z,51.88
2022-11-29T18:31:29.562Z,58.85
2022-11-29T18:33:57.371Z,62.91
2022-11-29T18:36:24.235Z,56.51
2022-11-29T18:38:51.265Z,52.53
2022-11-29T18:41:18.148Z,53.05
2022-11-29T18:43:48.445Z,55.33
2022-11-29T18:46:15.926Z,53.67
2022-11-29T18:48:43.497Z,52.16
2022-11-29T18:51:10.359Z,52.84
2022-11-29T18:53:37.301Z,52.52
2022-11-29T18:56:04.115Z,52.86
2022-11-29T18:58:30.946Z,52.50
2022-11-29T19:00:58.264Z,52.08
2022-11-29T19:03:34.965Z,51.86
2022-11-29T19:06:03.753Z,52.52
2022-11-29T19:08:32.647Z,53.03
2022-11-29T19:10:59.546Z,52.83
2022-11-29T19:13:26.668Z,52.18
2022-11-29T19:15:53.314Z,52.32
2022-11-29T19:18:21.089Z,52.51
2022-11-29T19:20:57.951Z,52.10
2022-11-29T19:23:26.027Z,52.50
2022-11-29T19:25:52.910Z,52.24
2022-11-29T19:28:24.749Z,52.62
2022-11-29T19:30:52.501Z,52.62
2022-11-29T19:33:20.177Z,52.53
2022-11-29T19:35:47.163Z,52.24
2022-11-29T19:38:14.192Z,52.39
2022-11-29T19:40:42.079Z,52.13
2022-11-29T19:43:10.102Z,52.36
2022-11-29T19:45:37.099Z,57.99
2022-11-29T19:48:04.203Z,63.67
2022-11-29T19:50:31.333Z,62.05
2022-11-29T19:52:58.183Z,60.74
2022-11-29T19:55:25.063Z,52.16
2022-11-29T19:57:51.916Z,50.88
2022-11-29T20:00:19.346Z,53.21
2022-11-29T20:02:46.449Z,51.70
2022-11-29T20:05:13.521Z,53.06
2022-11-29T20:07:40.527Z,52.51
2022-11-29T20:10:07.491Z,51.76
2022-11-29T20:12:34.386Z,51.66
2022-11-29T20:15:01.116Z,51.70
2022-11-29T20:20:08.816Z,51.40
2022-11-29T20:22:35.793Z,51.67
2022-11-29T20:25:02.462Z,51.28
2022-11-29T20:27:30.367Z,56.40
2022-11-29T20:30:00.323Z,57.22
2022-11-29T20:32:29.932Z,59.12
2022-11-29T20:34:56.860Z,58.79
2022-11-29T20:37:24.420Z,55.04
2022-11-29T20:39:50.964Z,52.30
2022-11-29T20:42:25.328Z,50.30
2022-11-29T20:44:52.291Z,51.13
2022-11-29T20:47:20.239Z,52.12
2022-11-29T20:49:47.363Z,51.18
2022-11-29T20:52:15.468Z,51.15
2022-11-29T20:54:43.197Z,50.40
2022-11-29T20:57:10.157Z,51.25
2022-11-29T20:59:36.634Z,51.15
2022-11-29T21:02:03.635Z,51.96
2022-11-29T21:04:30.439Z,51.38
2022-11-29T21:07:00.056Z,51.55
2022-11-29T21:09:28.477Z,51.93
2022-11-29T21:11:55.454Z,51.37
2022-11-29T21:14:21.828Z,51.50
2022-11-29T21:16:48.335Z,51.44
2022-11-29T21:19:15.955Z,51.58
2022-11-29T21:21:42.589Z,51.36
2022-11-29T21:24:09.056Z,51.80
2022-11-29T21:26:41.338Z,51.86
2022-11-29T21:29:08.268Z,51.64
2022-11-29T21:31:35.106Z,51.71
2022-11-29T21:34:01.706Z,50.96
2022-11-29T21:36:28.102Z,51.49
2022-11-29T21:38:55.392Z,51.50
2022-11-29T21:41:22.024Z,51.59
2022-11-29T21:44:05.949Z,51.37
2022-11-29T21:46:33.573Z,51.58
2022-11-29T21:49:00.430Z,51.81
2022-11-29T21:51:26.864Z,51.05
2022-11-29T21:53:54.646Z,51.13
2022-11-29T21:56:21.079Z,51.15
2022-11-29T21:58:47.933Z,51.58
2022-11-29T22:01:15.396Z,51.21
2022-11-29T22:03:41.944Z,51.61
2022-11-29T22:06:08.383Z,51.79
2022-11-29T22:08:34.774Z,52.31
2022-11-29T22:11:01.382Z,52.15
2022-11-29T22:13:27.971Z,52.41
2022-11-29T22:15:54.403Z,52.50
2022-11-29T22:18:20.979Z,52.25
2022-11-29T22:20:47.592Z,52.51
2022-11-29T22:23:14.378Z,52.46
2022-11-29T22:25:40.833Z,52.24
2022-11-29T22:28:07.272Z,52.75
2022-11-29T22:30:33.679Z,52.49
2022-11-29T22:33:00.436Z,52.58
2022-11-29T22:35:26.868Z,52.57
2022-11-29T22:37:53.435Z,52.55
2022-11-29T22:40:20.028Z,52.18
2022-11-29T22:42:47.140Z,51.95
2022-11-29T22:45:13.565Z,52.00
2022-11-29T22:47:39.998Z,52.58
2022-11-29T22:50:06.365Z,52.49
2022-11-29T22:52:32.968Z,52.66
2022-11-29T22:55:04.492Z,52.37
2022-11-29T22:57:31.498Z,52.52
2022-11-29T22:59:58.070Z,52.56
2022-11-29T23:02:24.463Z,52.09
2022-11-29T23:04:51.072Z,52.28
2022-11-29T23:07:18.053Z,52.23
2022-11-29T23:09:47.766Z,52.69
2022-11-29T23:12:14.248Z,52.76
2022-11-29T23:14:40.637Z,53.26
2022-11-29T23:17:07.089Z,52.88
2022-11-29T23:19:34.530Z,52.68
2022-11-29T23:22:00.994Z,52.87
2022-11-29T23:24:27.467Z,52.27
2022-11-29T23:26:53.867Z,52.77
2022-11-29T23:29:20.323Z,52.62
2022-11-29T23:31:46.753Z,53.13
2022-11-29T23:34:13.824Z,53.14
2022-11-29T23:36:43.345Z,53.42
2022-11-29T23:39:12.548Z,53.62
2022-11-29T23:41:39.014Z,53.66
2022-11-29T23:44:05.443Z,53.77
2022-11-29T23:46:31.926Z,53.81
2022-11-29T23:48:58.430Z,53.93
2022-11-29T23:51:24.860Z,53.53
2022-11-29T23:53:51.466Z,53.30
2022-11-29T23:56:18.008Z,53.29
2022-11-29T23:58:44.544Z,53.27
